createdAt,value
2019-04-22T00:00:51.422Z,8.07
2019-04-22T00:03:36.007Z,19.07
2019-04-22T00:06:24.200Z,9.17
2019-04-22T00:09:02.876Z,10.23
2019-04-22T00:11:46.679Z,14.20
2019-04-22T00:14:14.796Z,10.07
2019-04-22T00:22:07.729Z,14.60
2019-04-22T00:24:36.941Z,10.03
2019-04-22T00:27:26.150Z,11.47
2019-04-22T00:32:39.566Z,11.07
2019-04-22T00:35:15.202Z,12.53
2019-04-22T00:37:58.170Z,13.17
2019-04-22T00:40:38.373Z,14.23
2019-04-22T00:43:04.972Z,12.10
2019-04-22T00:45:44.686Z,14.07
2019-04-22T00:48:23.620Z,12.80
2019-04-22T00:53:36.080Z,17.17
2019-04-22T00:56:15.712Z,15.77
2019-04-22T00:58:46.818Z,13.60
2019-04-22T01:01:50.605Z,16.57
2019-04-22T01:06:41.614Z,16.40
2019-04-22T01:09:16.909Z,12.37
2019-04-22T01:11:54.225Z,13.90
2019-04-22T01:14:29.404Z,16.93
2019-04-22T01:17:00.051Z,12.87
2019-04-22T01:19:45.057Z,13.43
2019-04-22T01:22:19.070Z,14.60
2019-04-22T01:24:52.282Z,11.80
2019-04-22T01:27:20.635Z,12.07
2019-04-22T01:29:59.698Z,12.17
2019-04-22T01:32:30.335Z,13.33
2019-04-22T01:35:13.027Z,18.33
2019-04-22T01:37:48.479Z,15.03
2019-04-22T01:40:40.504Z,16.37
2019-04-22T01:45:48.007Z,11.53
2019-04-22T01:48:27.001Z,12.13
2019-04-22T01:50:54.889Z,17.73
2019-04-22T01:53:33.419Z,11.90
2019-04-22T01:56:14.021Z,11.40
2019-04-22T01:58:40.674Z,13.30
2019-04-22T02:01:28.610Z,21.93
2019-04-22T02:04:01.340Z,11.60
2019-04-22T02:06:39.157Z,11.77
2019-04-22T02:09:20.405Z,13.37
2019-04-22T02:12:02.988Z,14.13
2019-04-22T02:14:19.941Z,11.30
2019-04-22T02:16:56.174Z,13.33
2019-04-22T02:22:11.450Z,13.90
2019-04-22T02:27:37.611Z,10.77
2019-04-22T02:29:58.219Z,9.10
2019-04-22T02:35:25.847Z,9.63
2019-04-22T02:39:00.028Z,12.40
2019-04-22T02:41:26.351Z,11.93
2019-04-22T02:49:18.872Z,15.23
2019-04-22T02:52:14.977Z,11.37
2019-04-22T02:54:38.417Z,13.13
2019-04-22T02:57:19.433Z,12.93
2019-04-22T02:59:53.985Z,13.70
2019-04-22T03:02:21.439Z,11.13
2019-04-22T03:04:55.628Z,11.90
2019-04-22T03:12:33.311Z,15.23
2019-04-22T03:15:29.963Z,12.90
2019-04-22T03:17:58.475Z,10.40
2019-04-22T03:20:24.760Z,13.60
2019-04-22T03:23:16.531Z,11.53
2019-04-22T03:26:01.289Z,10.30
2019-04-22T03:28:23.695Z,11.83
2019-04-22T03:42:11.619Z,12.33
2019-04-22T03:45:06.273Z,12.73
2019-04-22T03:50:15.697Z,13.03
2019-04-22T03:52:36.963Z,11.20
2019-04-22T03:55:43.294Z,16.27
2019-04-22T04:03:07.485Z,16.30
2019-04-22T04:05:57.650Z,15.53
2019-04-22T04:08:26.348Z,12.90
2019-04-22T04:10:52.707Z,16.40
2019-04-22T04:13:35.935Z,11.70
2019-04-22T04:16:04.672Z,10.40
2019-04-22T04:18:56.169Z,10.87
2019-04-22T04:26:45.610Z,13.77
2019-04-22T04:29:35.630Z,10.90
2019-04-22T04:34:49.344Z,13.67
2019-04-22T04:37:14.968Z,10.73
2019-04-22T04:39:38.590Z,11.87
2019-04-22T04:47:37.225Z,12.97
2019-04-22T04:49:57.422Z,10.50
2019-04-22T04:53:02.179Z,12.43
2019-04-22T04:57:57.709Z,13.40
2019-04-22T05:00:40.133Z,11.83
2019-04-22T05:03:00.625Z,14.50
2019-04-22T05:05:37.261Z,11.30
2019-04-22T05:08:13.832Z,10.10
2019-04-22T05:13:23.444Z,11.40
2019-04-22T05:16:10.869Z,9.10
2019-04-22T05:21:16.421Z,13.10
2019-04-22T05:23:44.572Z,7.87
2019-04-22T05:29:02.641Z,10.90
2019-04-22T05:31:37.566Z,11.37
2019-04-22T05:34:08.195Z,7.60
2019-04-22T05:39:16.779Z,11.33
2019-04-22T05:42:03.116Z,7.23
2019-04-22T05:44:37.270Z,12.80
2019-04-22T05:47:08.344Z,9.67
2019-04-22T05:49:41.537Z,9.07
2019-04-22T05:52:21.183Z,8.47
2019-04-22T05:55:02.514Z,11.60
2019-04-22T05:57:32.747Z,7.70
2019-04-22T06:00:13.874Z,15.83
2019-04-22T06:05:31.905Z,13.93
2019-04-22T06:08:03.649Z,6.37
2019-04-22T06:10:46.611Z,6.60
2019-04-22T06:13:13.942Z,10.73
2019-04-22T06:15:53.044Z,8.20
2019-04-22T06:18:27.251Z,7.37
2019-04-22T06:21:05.226Z,9.37
2019-04-22T06:23:46.456Z,6.20
2019-04-22T06:36:57.009Z,12.07
2019-04-22T06:39:30.835Z,6.90
2019-04-22T06:42:01.022Z,10.80
2019-04-22T06:44:36.562Z,6.57
2019-04-22T06:47:21.029Z,7.40
2019-04-22T06:49:49.270Z,7.13
2019-04-22T06:54:59.563Z,8.57
2019-04-22T06:57:39.391Z,8.80
2019-04-22T07:00:14.311Z,7.20
2019-04-22T07:03:13.762Z,8.47
2019-04-22T07:05:25.260Z,6.33
2019-04-22T07:08:04.366Z,7.57
2019-04-22T07:13:11.643Z,7.33
2019-04-22T07:15:50.771Z,7.90
2019-04-22T07:21:04.268Z,8.60
2019-04-22T07:23:43.336Z,7.50
2019-04-22T07:26:11.863Z,8.20
2019-04-22T07:28:51.988Z,5.93
2019-04-22T07:31:24.860Z,8.30
2019-04-22T07:34:08.079Z,5.17
2019-04-22T07:39:18.373Z,7.70
2019-04-22T07:41:53.656Z,9.73
2019-04-22T07:44:44.944Z,5.83
2019-04-22T07:52:17.564Z,6.20
2019-04-22T07:54:52.421Z,5.40
2019-04-22T08:00:10.965Z,8.83
2019-04-22T08:02:44.987Z,7.57
2019-04-22T08:05:20.674Z,5.60
2019-04-22T08:08:05.478Z,5.90
2019-04-22T08:13:11.723Z,6.73
2019-04-22T08:15:47.716Z,6.47
2019-04-22T08:18:22.379Z,9.67
2019-04-22T08:20:58.356Z,8.23
2019-04-22T08:23:35.471Z,8.87
2019-04-22T08:26:06.057Z,6.57
2019-04-22T08:28:45.926Z,5.30
2019-04-22T08:31:20.299Z,6.80
2019-04-22T08:33:54.590Z,9.83
2019-04-22T08:36:32.346Z,7.93
2019-04-22T08:39:21.732Z,5.70
2019-04-22T08:41:41.577Z,6.63
2019-04-22T08:44:38.985Z,17.47
2019-04-22T08:47:11.178Z,9.27
2019-04-22T08:49:45.507Z,9.90
2019-04-22T08:52:17.837Z,12.70
2019-04-22T08:54:53.672Z,9.73
2019-04-22T08:57:34.827Z,9.63
2019-04-22T09:00:02.475Z,7.80
2019-04-22T09:02:41.294Z,6.53
2019-04-22T09:05:22.524Z,6.03
2019-04-22T09:07:52.129Z,9.00
2019-04-22T09:10:36.255Z,9.40
2019-04-22T09:15:48.812Z,5.70
2019-04-22T09:18:14.792Z,6.97
2019-04-22T09:20:57.332Z,4.80
2019-04-22T09:23:30.329Z,6.57
2019-04-22T09:26:09.178Z,6.00
2019-04-22T09:28:44.681Z,4.87
2019-04-22T09:31:22.459Z,4.57
2019-04-22T09:33:47.664Z,5.90
2019-04-22T09:39:12.698Z,5.00
2019-04-22T09:41:51.447Z,7.90
2019-04-22T09:44:25.652Z,5.50
2019-04-22T09:47:00.021Z,4.60
2019-04-22T09:49:44.552Z,4.07
2019-04-22T09:52:10.494Z,4.80
2019-04-22T09:54:57.015Z,14.73
2019-04-22T09:57:21.207Z,6.47
2019-04-22T10:00:02.400Z,6.43
2019-04-22T10:05:15.101Z,6.47
2019-04-22T10:07:49.144Z,4.57
2019-04-22T10:10:18.881Z,4.17
2019-04-22T10:12:57.497Z,4.97
2019-04-22T10:15:33.766Z,7.03
2019-04-22T10:18:19.636Z,5.47
2019-04-22T10:20:51.847Z,8.90
2019-04-22T10:23:24.805Z,4.60
2019-04-22T10:26:05.297Z,5.60
2019-04-22T10:28:40.126Z,6.03
2019-04-22T10:31:21.913Z,18.10
2019-04-22T10:33:42.173Z,5.73
2019-04-22T10:36:03.525Z,8.20
2019-04-22T10:38:37.588Z,4.37
2019-04-22T10:41:14.591Z,8.43
2019-04-22T10:43:51.014Z,4.33
2019-04-22T10:46:26.397Z,5.90
2019-04-22T10:49:01.950Z,9.37
2019-04-22T10:51:36.913Z,6.93
2019-04-22T10:54:11.466Z,8.83
2019-04-22T10:56:45.330Z,4.90
2019-04-22T10:59:20.492Z,8.60
2019-04-22T11:01:54.975Z,5.03
2019-04-22T11:04:30.202Z,7.90
2019-04-22T11:07:07.627Z,5.93
2019-04-22T11:09:53.095Z,7.70
2019-04-22T11:12:21.459Z,5.97
2019-04-22T11:14:53.943Z,8.00
2019-04-22T11:17:29.267Z,10.13
2019-04-22T11:20:07.950Z,6.17
2019-04-22T11:22:44.539Z,7.37
2019-04-22T11:25:18.375Z,6.80
2019-04-22T11:27:55.860Z,11.90
2019-04-22T11:30:31.951Z,5.57
2019-04-22T11:33:06.840Z,4.53
2019-04-22T11:35:41.795Z,7.37
2019-04-22T11:38:17.067Z,6.30
2019-04-22T11:40:54.063Z,6.43
2019-04-22T11:43:26.573Z,10.30
2019-04-22T11:46:03.257Z,5.67
2019-04-22T11:48:38.116Z,12.77
2019-04-22T11:51:14.007Z,10.73
2019-04-22T11:53:49.021Z,7.43
2019-04-22T11:56:23.058Z,8.30
2019-04-22T11:58:57.814Z,6.70
2019-04-22T12:01:40.937Z,4.70
2019-04-22T12:04:17.995Z,3.90
2019-04-22T12:06:53.814Z,7.53
2019-04-22T12:09:29.811Z,7.37
2019-04-22T12:12:05.730Z,6.23
2019-04-22T12:14:40.548Z,6.03
2019-04-22T12:17:15.964Z,6.27
2019-04-22T12:19:52.711Z,5.60
2019-04-22T12:22:26.959Z,4.10
2019-04-22T12:25:01.485Z,5.57
2019-04-22T12:27:38.937Z,6.17
2019-04-22T12:30:14.776Z,5.93
2019-04-22T12:32:50.520Z,5.90
2019-04-22T12:35:26.581Z,5.20
2019-04-22T12:38:06.111Z,6.93
2019-04-22T12:40:44.745Z,4.73
2019-04-22T12:43:12.856Z,6.80
2019-04-22T12:45:47.977Z,4.00
2019-04-22T12:48:23.223Z,7.63
2019-04-22T12:50:58.524Z,5.83
2019-04-22T12:53:33.923Z,5.93
2019-04-22T12:56:09.093Z,3.93
2019-04-22T12:58:43.632Z,4.13
2019-04-22T13:01:19.087Z,3.47
2019-04-22T13:03:57.640Z,7.73
2019-04-22T13:06:32.056Z,3.00
2019-04-22T13:09:08.676Z,3.70
2019-04-22T13:11:44.169Z,9.17
2019-04-22T13:14:21.280Z,3.03
2019-04-22T13:16:55.175Z,4.17
2019-04-22T13:19:32.055Z,4.10
2019-04-22T13:22:09.292Z,10.80
2019-04-22T13:24:45.937Z,4.43
2019-04-22T13:27:21.484Z,6.37
2019-04-22T13:29:57.169Z,7.30
2019-04-22T13:32:31.375Z,4.23
2019-04-22T13:35:07.042Z,3.57
2019-04-22T13:37:41.119Z,6.97
2019-04-22T13:40:19.044Z,2.93
2019-04-22T13:42:55.622Z,3.37
2019-04-22T13:45:29.835Z,4.97
2019-04-22T13:48:22.058Z,5.23
2019-04-22T13:56:13.667Z,3.50
2019-04-22T13:58:44.814Z,11.23
2019-04-22T14:01:12.553Z,3.40
2019-04-22T14:04:04.786Z,3.43
2019-04-22T14:06:38.886Z,7.33
2019-04-22T14:09:16.691Z,7.27
2019-04-22T14:11:55.864Z,7.33
2019-04-22T14:14:26.519Z,3.03
2019-04-22T14:17:00.979Z,3.30
2019-04-22T14:19:36.286Z,7.43
2019-04-22T14:22:11.629Z,11.53
2019-04-22T14:24:46.759Z,7.53
2019-04-22T14:27:31.761Z,9.77
2019-04-22T14:29:57.706Z,7.10
2019-04-22T14:32:32.359Z,20.37
2019-04-22T14:35:09.320Z,9.93
2019-04-22T14:37:43.448Z,4.33
2019-04-22T14:40:22.049Z,8.53
2019-04-22T14:43:13.208Z,6.53
2019-04-22T14:46:04.298Z,4.43
2019-04-22T14:48:37.363Z,4.00
2019-04-22T14:51:00.633Z,4.90
2019-04-22T14:53:35.548Z,3.40
2019-04-22T14:55:52.757Z,4.90
2019-04-22T14:58:28.826Z,12.03
2019-04-22T15:01:03.298Z,4.20
2019-04-22T15:03:42.003Z,8.53
2019-04-22T15:06:20.056Z,7.10
2019-04-22T15:08:59.006Z,9.27
2019-04-22T15:11:48.642Z,5.00
2019-04-22T15:14:09.675Z,9.87
2019-04-22T15:17:08.979Z,7.57
2019-04-22T15:19:58.054Z,4.30
2019-04-22T15:22:32.701Z,2.00
2019-04-22T15:25:08.427Z,3.63
2019-04-22T15:27:43.225Z,4.20
2019-04-22T15:30:19.296Z,2.83
2019-04-22T15:32:53.702Z,3.53
2019-04-22T15:35:27.533Z,3.67
2019-04-22T15:38:01.507Z,2.67
2019-04-22T15:40:36.565Z,7.03
2019-04-22T15:43:10.980Z,4.87
2019-04-22T15:45:46.596Z,2.53
2019-04-22T15:48:21.190Z,4.90
2019-04-22T15:50:55.102Z,2.30
2019-04-22T15:53:29.626Z,4.10
2019-04-22T15:56:04.960Z,6.43
2019-04-22T15:58:39.649Z,5.80
2019-04-22T16:01:22.259Z,4.97
2019-04-22T16:03:50.430Z,4.10
2019-04-22T16:06:26.156Z,6.40
2019-04-22T16:09:02.702Z,4.97
2019-04-22T16:11:38.061Z,1.83
2019-04-22T16:14:15.109Z,7.13
2019-04-22T16:16:48.372Z,1.50
2019-04-22T16:19:23.273Z,2.40
2019-04-22T16:22:05.008Z,2.97
2019-04-22T16:24:52.455Z,1.50
2019-04-22T16:27:30.071Z,3.53
2019-04-22T16:30:07.516Z,1.83
2019-04-22T16:32:43.345Z,2.17
2019-04-22T16:35:18.689Z,2.60
2019-04-22T16:37:52.683Z,2.30
2019-04-22T16:40:30.564Z,2.40
2019-04-22T16:43:07.770Z,4.23
2019-04-22T16:45:41.075Z,1.43
2019-04-22T16:48:15.991Z,3.00
2019-04-22T16:50:52.212Z,4.33
2019-04-22T16:53:25.536Z,3.70
2019-04-22T16:56:00.473Z,10.13
2019-04-22T16:58:34.724Z,7.10
2019-04-22T17:01:25.309Z,3.03
2019-04-22T17:04:07.010Z,5.43
2019-04-22T17:06:43.602Z,3.60
2019-04-22T17:09:19.689Z,4.40
2019-04-22T17:11:56.013Z,5.00
2019-04-22T17:14:36.003Z,4.37
2019-04-22T17:17:08.397Z,9.03
2019-04-22T17:19:42.539Z,2.90
2019-04-22T17:22:19.604Z,4.00
2019-04-22T17:24:55.779Z,6.40
2019-04-22T17:27:34.458Z,5.67
2019-04-22T17:30:10.555Z,7.07
2019-04-22T17:32:48.398Z,2.73
2019-04-22T17:35:26.224Z,7.43
2019-04-22T17:38:14.292Z,3.93
2019-04-22T17:40:52.282Z,2.23
2019-04-22T17:43:41.314Z,4.80
2019-04-22T17:46:32.281Z,8.73
2019-04-22T17:49:34.032Z,3.23
2019-04-22T17:52:21.111Z,3.90
2019-04-22T17:54:51.663Z,4.13
2019-04-22T17:57:27.870Z,3.87
2019-04-22T18:00:07.052Z,3.27
2019-04-22T18:02:42.147Z,4.23
2019-04-22T18:05:04.211Z,2.17
2019-04-22T18:07:54.863Z,12.60
2019-04-22T18:10:35.688Z,3.30
2019-04-22T18:13:20.431Z,3.37
2019-04-22T18:16:08.162Z,2.10
2019-04-22T18:18:49.703Z,3.57
2019-04-22T18:21:18.986Z,4.23
2019-04-22T18:23:50.190Z,4.90
2019-04-22T18:26:32.099Z,2.93
2019-04-22T18:29:12.920Z,4.10
2019-04-22T18:31:38.580Z,4.10
2019-04-22T18:34:15.611Z,3.83
2019-04-22T18:36:55.299Z,3.70
2019-04-22T18:39:42.370Z,6.73
2019-04-22T18:42:09.329Z,3.17
2019-04-22T18:44:55.351Z,5.40
2019-04-22T18:47:27.643Z,5.73
2019-04-22T18:50:02.806Z,9.83
2019-04-22T18:52:48.744Z,3.93
2019-04-22T18:55:33.817Z,4.80
2019-04-22T18:58:16.628Z,5.37
2019-04-22T19:00:41.842Z,15.37
2019-04-22T19:03:25.323Z,14.33
2019-04-22T19:06:32.213Z,12.17
2019-04-22T19:08:55.578Z,5.07
2019-04-22T19:11:26.981Z,17.03
2019-04-22T19:14:07.477Z,6.43
2019-04-22T19:16:39.716Z,12.20
2019-04-22T19:19:29.746Z,7.60
2019-04-22T19:21:51.392Z,9.03
2019-04-22T19:24:24.227Z,6.33
2019-04-22T19:27:23.649Z,9.30
2019-04-22T19:29:45.169Z,6.93
2019-04-22T19:32:21.408Z,3.97
2019-04-22T19:34:54.153Z,5.60
2019-04-22T19:37:27.101Z,5.20
2019-04-22T19:40:17.588Z,6.90
2019-04-22T19:42:53.018Z,3.77
2019-04-22T19:45:15.753Z,15.07
2019-04-22T19:48:03.619Z,6.30
2019-04-22T19:50:34.601Z,11.80
2019-04-22T19:53:10.561Z,4.20
2019-04-22T19:55:48.214Z,2.50
2019-04-22T19:58:20.136Z,8.17
2019-04-22T20:01:16.389Z,6.50
2019-04-22T20:04:22.994Z,11.37
2019-04-22T20:07:14.174Z,4.77
2019-04-22T20:09:55.645Z,6.93
2019-04-22T20:12:23.494Z,11.27
2019-04-22T20:15:00.225Z,6.50
2019-04-22T20:20:16.159Z,7.13
2019-04-22T20:22:44.822Z,2.70
2019-04-22T20:25:13.470Z,6.03
2019-04-22T20:28:05.914Z,4.23
2019-04-22T20:30:44.491Z,4.03
2019-04-22T20:33:08.712Z,5.47
2019-04-22T20:35:52.042Z,5.50
2019-04-22T20:38:28.023Z,14.77
2019-04-22T20:41:01.439Z,5.43
2019-04-22T20:43:46.751Z,8.53
2019-04-22T20:46:19.068Z,7.33
2019-04-22T20:48:54.826Z,8.80
2019-04-22T20:51:38.993Z,4.70
2019-04-22T20:54:10.340Z,16.57
2019-04-22T20:56:33.693Z,14.50
2019-04-22T20:59:12.636Z,8.63
2019-04-22T21:01:48.936Z,11.03
2019-04-22T21:04:19.645Z,10.07
2019-04-22T21:07:02.226Z,9.40
2019-04-22T21:09:38.196Z,13.83
2019-04-22T21:12:12.469Z,18.70
2019-04-22T21:14:54.927Z,15.60
2019-04-22T21:17:25.039Z,10.33
2019-04-22T21:20:09.987Z,14.03
2019-04-22T21:22:38.922Z,19.20
2019-04-22T21:25:09.889Z,10.30
2019-04-22T21:27:57.985Z,15.10
2019-04-22T21:30:32.001Z,10.20
2019-04-22T21:33:04.158Z,7.10
2019-04-22T21:35:55.000Z,6.60
2019-04-22T21:38:21.606Z,13.07
2019-04-22T21:40:56.383Z,12.73
2019-04-22T21:43:28.819Z,12.73
2019-04-22T21:46:10.483Z,13.40
2019-04-22T21:48:49.379Z,12.90
2019-04-22T21:51:25.633Z,8.70
2019-04-22T21:54:06.856Z,13.47
2019-04-22T21:56:42.356Z,11.93
2019-04-22T21:59:12.464Z,9.20
2019-04-22T22:01:52.774Z,10.83
2019-04-22T22:04:25.140Z,13.60
2019-04-22T22:06:54.572Z,19.30
2019-04-22T22:09:39.142Z,20.10
2019-04-22T22:12:16.486Z,19.60
2019-04-22T22:14:50.058Z,17.83
2019-04-22T22:17:25.259Z,9.43
2019-04-22T22:19:57.902Z,21.03
2019-04-22T22:22:45.412Z,12.57
2019-04-22T22:25:14.306Z,18.30
2019-04-22T22:27:44.826Z,19.93
2019-04-22T22:33:01.606Z,15.03
2019-04-22T22:35:36.149Z,13.30
2019-04-22T22:38:10.866Z,15.23
2019-04-22T22:40:28.586Z,13.30
2019-04-22T22:43:11.672Z,14.27
2019-04-22T22:45:45.000Z,14.33
2019-04-22T22:48:36.798Z,11.20
2019-04-22T22:51:09.656Z,12.47
2019-04-22T22:53:44.655Z,19.40
2019-04-22T22:56:34.966Z,13.40
2019-04-22T22:58:58.744Z,11.10
2019-04-22T23:01:36.086Z,15.70
2019-04-22T23:04:09.249Z,12.83
2019-04-22T23:06:44.397Z,11.90
2019-04-22T23:09:19.254Z,19.83
2019-04-22T23:12:03.290Z,10.30
2019-04-22T23:14:37.079Z,14.00
2019-04-22T23:16:59.213Z,14.93
2019-04-22T23:19:26.069Z,12.53
2019-04-22T23:22:06.325Z,13.00
2019-04-22T23:24:55.593Z,14.53
2019-04-22T23:27:51.459Z,13.03
2019-04-22T23:30:52.840Z,12.87
2019-04-22T23:33:43.844Z,13.27
2019-04-22T23:36:50.819Z,13.33
2019-04-22T23:39:41.676Z,11.53
2019-04-22T23:42:13.455Z,22.60
2019-04-22T23:44:50.329Z,11.57
2019-04-22T23:47:43.464Z,11.43
2019-04-22T23:50:34.044Z,13.20
2019-04-22T23:53:08.654Z,15.17
2019-04-22T23:55:43.602Z,15.80
2019-04-22T23:58:34.963Z,14.57
